Time;durP1;ratioP1;P1;durP2;ratioP2;P2;SDS_P1;SDS_P2;PMS_P1;PMS_P2;Temp;Humidity;BMP_temperature;BMP_pressure;BME280_temperature;BME280_humidity;BME280_pressure;Samples;Min_cycle;Max_cycle;Signal;HPM_P1;HPM_P2
2023/06/09 00:01:09;;;;;;;6.80;4.80;;;;;;;14.11;72.06;100465.13;102435;268;97520;-56
2023/06/09 00:03:45;;;;;;;7.00;4.70;;;;;;;14.11;71.97;100460.45;102415;280;96520;-56
2023/06/09 00:06:25;;;;;;;5.90;4.70;;;;;;;14.08;72.21;100462.66;102533;279;119343;-56
2023/06/09 00:09:06;;;;;;;7.80;5.10;;;;;;;14.04;72.35;100456.82;102487;279;105697;-56
2023/06/09 00:11:46;;;;;;;6.30;4.80;;;;;;;14.01;72.55;100457.02;102501;279;113308;-55
2023/06/09 00:14:24;;;;;;;5.60;4.90;;;;;;;13.97;72.61;100454.70;102460;279;95286;-57
2023/06/09 00:17:07;;;;;;;6.20;4.60;;;;;;;13.93;72.69;100455.98;102495;279;97457;-58
2023/06/09 00:19:52;;;;;;;6.10;4.70;;;;;;;13.89;72.68;100458.08;102525;279;118461;-56
2023/06/09 00:22:32;;;;;;;5.40;4.70;;;;;;;13.86;72.87;100455.53;102516;279;106132;-57
2023/06/09 00:25:04;;;;;;;6.00;4.80;;;;;;;13.83;72.97;100456.20;102516;279;114838;-55
2023/06/09 00:27:44;;;;;;;7.70;5.00;;;;;;;13.80;73.15;100454.27;102503;279;93590;-56
2023/06/09 00:30:20;;;;;;;8.60;5.00;;;;;;;13.79;73.31;100454.88;102523;279;97516;-57
2023/06/09 00:32:58;;;;;;;8.50;4.80;;;;;;;13.79;73.42;100457.41;102473;279;119177;-56
2023/06/09 00:35:31;;;;;;;5.30;4.80;;;;;;;13.75;73.54;100457.41;102536;279;106010;-56
2023/06/09 00:38:05;;;;;;;7.40;5.00;;;;;;;13.70;73.54;100457.73;102514;279;113654;-57
2023/06/09 00:40:40;;;;;;;5.00;4.50;;;;;;;13.67;73.67;100454.48;102496;279;96564;-56
2023/06/09 00:43:18;;;;;;;5.80;4.50;;;;;;;13.65;73.80;100454.09;102527;279;96429;-55
2023/06/09 00:45:59;;;;;;;5.60;4.90;;;;;;;13.63;73.79;100450.73;102421;280;118991;-58
2023/06/09 00:48:36;;;;;;;8.60;5.30;;;;;;;13.57;73.90;100455.20;102407;280;106336;-59
2023/06/09 00:51:17;;;;;;;7.00;5.20;;;;;;;13.54;74.01;100458.31;102634;279;114902;-59
2023/06/09 00:53:55;;;;;;;6.80;5.20;;;;;;;13.54;74.13;100457.27;102665;279;94581;-57
2023/06/09 00:56:27;;;;;;;8.20;5.40;;;;;;;13.49;74.02;100459.73;102512;279;97346;-58
2023/06/09 00:59:02;;;;;;;7.40;5.40;;;;;;;13.44;74.20;100455.92;102541;279;120370;-56
2023/06/09 01:01:45;;;;;;;8.20;5.90;;;;;;;13.40;74.40;100454.95;102508;279;105133;-55
2023/06/09 01:04:23;;;;;;;6.00;5.20;;;;;;;13.37;74.39;100452.35;102493;279;113967;-56
2023/06/09 01:07:15;;;;;;;7.00;5.40;;;;;;;13.34;74.66;100451.73;102493;279;96508;-56
2023/06/09 01:10:02;;;;;;;5.20;4.70;;;;;;;13.32;74.82;100455.23;102512;279;97770;-55
2023/06/09 01:12:47;;;;;;;6.50;5.00;;;;;;;13.31;75.01;100455.68;102518;279;119335;-56
2023/06/09 01:15:29;;;;;;;6.50;5.00;;;;;;;13.33;75.03;100456.05;102528;279;105446;-59
2023/06/09 01:18:12;;;;;;;7.70;5.60;;;;;;;13.36;75.19;100452.61;102468;279;113553;-57
2023/06/09 01:20:58;;;;;;;8.90;5.40;;;;;;;13.36;75.22;100449.23;102536;279;93918;-59
2023/06/09 01:23:44;;;;;;;8.00;6.20;;;;;;;13.35;75.18;100453.86;102484;279;97989;-56
2023/06/09 01:26:20;;;;;;;6.40;5.70;;;;;;;13.28;75.37;100451.67;102515;279;118591;-59
2023/06/09 01:28:58;;;;;;;8.10;6.10;;;;;;;13.19;75.44;100451.12;102567;279;104813;-57
2023/06/09 01:31:37;;;;;;;11.10;6.00;;;;;;;13.13;75.55;100447.17;102303;279;117097;-55
2023/06/09 01:34:09;;;;;;;6.30;5.60;;;;;;;13.07;75.78;100448.92;102458;279;97142;-59
2023/06/09 01:36:44;;;;;;;9.30;6.20;;;;;;;13.03;75.73;100448.70;102502;267;96293;-59
2023/06/09 01:39:19;;;;;;;7.00;5.30;;;;;;;12.99;75.95;100449.59;102494;279;119649;-57
2023/06/09 01:41:55;;;;;;;6.00;5.40;;;;;;;12.98;76.00;100446.96;102346;281;105145;-57
2023/06/09 01:44:38;;;;;;;9.50;6.30;;;;;;;13.02;75.82;100444.77;102503;279;114553;-55
2023/06/09 01:47:15;;;;;;;8.10;5.90;;;;;;;13.06;76.27;100447.55;102532;279;96275;-56
2023/06/09 01:50:02;;;;;;;9.40;6.40;;;;;;;13.03;76.48;100446.11;102547;279;97774;-58
2023/06/09 01:52:43;;;;;;;6.70;6.10;;;;;;;12.96;76.49;100445.09;102488;279;117884;-59
2023/06/09 01:55:25;;;;;;;7.00;6.00;;;;;;;12.91;76.65;100445.27;102376;279;104708;-59
2023/06/09 01:58:06;;;;;;;7.40;6.10;;;;;;;12.86;76.70;100444.13;102537;279;114319;-59
2023/06/09 02:00:48;;;;;;;7.60;6.30;;;;;;;12.82;76.65;100443.58;102522;279;96970;-56
2023/06/09 02:03:27;;;;;;;9.40;6.40;;;;;;;12.78;76.76;100444.02;102504;279;97314;-55
2023/06/09 02:06:04;;;;;;;7.20;5.80;;;;;;;12.73;76.90;100441.28;102477;279;119887;-58
2023/06/09 02:08:44;;;;;;;7.60;6.60;;;;;;;12.73;76.83;100440.03;102510;279;105614;-57
2023/06/09 02:11:21;;;;;;;7.70;6.20;;;;;;;12.71;76.80;100444.33;102502;279;114405;-55
2023/06/09 02:13:55;;;;;;;7.90;6.60;;;;;;;12.69;77.10;100452.48;102517;279;92919;-57
2023/06/09 02:16:28;;;;;;;;;;;;;;;12.68;77.11;100456.94;102508;279;97594;-58
2023/06/09 02:19:03;;;;;;;8.00;6.50;;;;;;;12.64;77.10;100460.30;102517;279;118338;-57
2023/06/09 02:21:40;;;;;;;8.80;6.40;;;;;;;12.61;77.17;100456.83;102490;279;105651;-57
2023/06/09 02:24:18;;;;;;;8.50;7.10;;;;;;;12.67;77.41;100455.73;102493;268;114206;-55
2023/06/09 02:26:58;;;;;;;7.30;6.40;;;;;;;12.70;77.56;100456.66;102467;279;95460;-56
2023/06/09 02:29:38;;;;;;;8.30;7.00;;;;;;;12.74;77.55;100456.76;102509;279;96563;-59
2023/06/09 02:32:11;;;;;;;7.80;6.60;;;;;;;12.72;77.56;100455.84;102477;279;119297;-59
2023/06/09 02:34:47;;;;;;;10.50;7.20;;;;;;;12.73;77.82;100456.38;102555;268;105518;-56
2023/06/09 02:37:24;;;;;;;8.60;7.30;;;;;;;12.75;77.74;100454.43;102374;278;114740;-55
2023/06/09 02:39:59;;;;;;;8.90;7.50;;;;;;;12.76;77.69;100457.93;102409;279;95059;-55
2023/06/09 02:42:31;;;;;;;9.80;8.40;;;;;;;12.74;77.86;100457.80;102478;278;98455;-55
2023/06/09 02:45:03;;;;;;;8.50;7.20;;;;;;;12.78;78.03;100459.11;102534;278;119855;-55
2023/06/09 02:47:40;;;;;;;10.70;7.60;;;;;;;12.82;78.03;100457.84;102511;278;105467;-56
2023/06/09 02:50:13;;;;;;;12.00;7.40;;;;;;;12.87;78.11;100460.28;102567;278;115113;-56
2023/06/09 02:52:46;;;;;;;7.90;6.90;;;;;;;12.92;78.03;100462.46;102498;278;95596;-56
2023/06/09 02:55:18;;;;;;;8.40;7.50;;;;;;;12.95;78.07;100461.70;102582;279;98064;-56
2023/06/09 02:57:53;;;;;;;11.00;7.30;;;;;;;13.00;78.21;100463.99;102525;274;120329;-56
2023/06/09 03:00:36;;;;;;;8.80;7.40;;;;;;;13.10;78.19;100465.45;102530;278;105708;-55
2023/06/09 03:03:14;;;;;;;9.90;8.20;;;;;;;13.18;78.19;100470.55;102552;278;114458;-56
2023/06/09 03:05:49;;;;;;;9.70;7.70;;;;;;;13.33;78.42;100470.89;102523;278;94736;-58
2023/06/09 03:08:23;;;;;;;9.00;7.30;;;;;;;13.47;78.49;100470.16;102481;279;96847;-58
2023/06/09 03:10:55;;;;;;;9.10;8.00;;;;;;;13.59;78.39;100471.23;102520;279;118435;-56
2023/06/09 03:13:28;;;;;;;9.80;8.60;;;;;;;13.70;78.48;100473.23;102518;278;104665;-56
2023/06/09 03:16:03;;;;;;;9.00;8.00;;;;;;;13.77;78.49;100475.00;102553;278;113302;-59
2023/06/09 03:18:39;;;;;;;10.60;7.70;;;;;;;13.85;78.39;100476.08;102012;279;600122;-59
2023/06/09 03:21:18;;;;;;;10.50;7.60;;;;;;;13.92;78.35;100478.55;102481;278;98189;-58
2023/06/09 03:23:56;;;;;;;10.10;7.70;;;;;;;13.98;78.40;100474.80;102538;278;120515;-58
2023/06/09 03:26:30;;;;;;;12.40;8.00;;;;;;;14.26;78.27;100472.60;102539;278;105636;-58
2023/06/09 03:29:04;;;;;;;;;;;;;;;14.95;77.89;100471.64;102513;278;116222;-58
2023/06/09 03:31:43;;;;;;;12.70;8.00;;;;;;;16.35;76.98;100474.79;102517;278;95130;-58
2023/06/09 03:34:20;;;;;;;9.90;8.50;;;;;;;17.82;75.15;100473.54;102563;278;96834;-56
2023/06/09 03:36:56;;;;;;;11.50;8.80;;;;;;;19.31;73.04;100470.38;102525;278;119775;-56
2023/06/09 03:39:33;;;;;;;8.90;7.70;;;;;;;20.71;70.87;100466.55;102534;278;106802;-59
2023/06/09 03:42:07;;;;;;;12.80;8.10;;;;;;;21.83;68.51;100471.00;102584;278;114248;-59
2023/06/09 03:44:39;;;;;;;11.90;8.30;;;;;;;22.67;66.41;100465.83;102586;278;94410;-58
2023/06/09 03:47:18;;;;;;;9.70;7.30;;;;;;;23.48;64.89;100464.69;102546;279;98163;-59
2023/06/09 03:49:49;;;;;;;11.30;8.20;;;;;;;24.39;62.52;100463.95;102545;278;119087;-56
2023/06/09 03:52:30;;;;;;;16.70;9.40;;;;;;;25.16;60.33;100467.09;102558;278;106751;-56
2023/06/09 03:55:06;;;;;;;12.20;8.70;;;;;;;25.78;58.65;100470.36;102542;279;114952;-56
2023/06/09 03:57:39;;;;;;;10.90;7.70;;;;;;;26.42;56.86;100479.65;102541;279;95378;-56
2023/06/09 04:00:15;;;;;;;10.50;8.20;;;;;;;26.98;55.12;100475.29;102590;278;98328;-59
2023/06/09 04:02:50;;;;;;;8.90;7.60;;;;;;;27.44;53.23;100475.66;102555;279;118099;-58
2023/06/09 04:05:30;;;;;;;12.50;8.00;;;;;;;27.86;52.03;100477.11;102575;278;105066;-56
2023/06/09 04:08:11;;;;;;;8.50;7.60;;;;;;;28.16;50.39;100475.69;102479;279;113436;-56
2023/06/09 04:10:45;;;;;;;9.40;7.20;;;;;;;28.44;48.95;100477.32;102531;279;93964;-56
2023/06/09 04:13:37;;;;;;;10.10;7.60;;;;;;;28.92;47.71;100479.98;102507;279;97598;-55
2023/06/09 04:16:14;;;;;;;8.40;7.30;;;;;;;29.30;46.45;100476.53;102524;278;117942;-56
2023/06/09 04:18:46;;;;;;;7.50;6.60;;;;;;;29.50;45.38;100475.30;102511;279;105437;-56
2023/06/09 04:21:21;;;;;;;7.20;6.40;;;;;;;29.65;44.54;100470.08;102543;279;114111;-55
2023/06/09 04:23:57;;;;;;;7.80;7.00;;;;;;;28.97;43.95;100472.52;102580;278;94128;-56
2023/06/09 04:26:39;;;;;;;9.00;6.90;;;;;;;27.56;44.25;100472.63;102502;279;97345;-56
2023/06/09 04:29:17;;;;;;;7.70;6.40;;;;;;;26.29;45.29;100478.88;102517;279;119553;-56
2023/06/09 04:31:58;;;;;;;9.10;7.00;;;;;;;25.14;46.54;100477.79;102531;279;105234;-56
2023/06/09 04:34:37;;;;;;;10.90;6.70;;;;;;;24.68;47.55;100480.41;102532;279;114503;-57
2023/06/09 04:37:19;;;;;;;7.70;6.70;;;;;;;24.64;47.95;100480.96;102516;278;93835;-58
2023/06/09 04:39:55;;;;;;;13.90;7.90;;;;;;;23.93;48.63;100476.98;102550;278;98373;-55
2023/06/09 04:42:33;;;;;;;12.10;9.10;;;;;;;23.46;49.27;100478.77;102567;279;120482;-57
2023/06/09 04:45:10;;;;;;;10.10;8.90;;;;;;;23.38;49.84;100477.19;102520;279;105745;-56
2023/06/09 04:47:51;;;;;;;9.90;8.70;;;;;;;24.67;49.46;100473.58;102401;278;116098;-55
2023/06/09 04:50:25;;;;;;;9.60;7.30;;;;;;;26.48;47.91;100473.09;102547;279;93541;-59
2023/06/09 04:53:07;;;;;;;11.50;8.30;;;;;;;27.71;46.50;100469.98;102529;279;97369;-59
2023/06/09 04:55:40;;;;;;;7.70;6.90;;;;;;;28.86;44.92;100465.55;102541;278;120098;-56
2023/06/09 04:58:16;;;;;;;6.70;6.10;;;;;;;29.64;43.56;100459.67;102542;278;104906;-56
2023/06/09 05:01:00;;;;;;;7.10;6.40;;;;;;;30.45;42.63;100461.91;102540;279;114454;-59
2023/06/09 05:03:35;;;;;;;8.10;6.40;;;;;;;31.61;41.24;100464.38;102535;278;93871;-59
2023/06/09 05:06:15;;;;;;;8.10;5.90;;;;;;;32.32;40.13;100460.52;102561;278;97834;-59
2023/06/09 05:08:53;;;;;;;7.70;5.70;;;;;;;32.90;38.96;100460.63;102536;278;120450;-59
2023/06/09 05:11:26;;;;;;;5.70;5.20;;;;;;;33.31;37.81;100459.77;102575;278;105693;-59
2023/06/09 05:14:00;;;;;;;7.30;5.40;;;;;;;33.77;37.22;100460.82;102565;278;114399;-57
2023/06/09 05:16:37;;;;;;;7.50;5.60;;;;;;;33.99;36.32;100457.40;102528;278;93848;-57
2023/06/09 05:19:13;;;;;;;7.20;5.20;;;;;;;34.38;35.52;100464.25;102548;278;98030;-56
2023/06/09 05:21:56;;;;;;;6.70;5.40;;;;;;;34.52;34.49;100460.83;102534;279;117434;-56
2023/06/09 05:24:34;;;;;;;8.30;5.10;;;;;;;34.89;34.01;100458.81;102535;278;105708;-57
2023/06/09 05:27:07;;;;;;;7.60;5.30;;;;;;;35.17;33.41;100463.32;102521;279;115124;-57
2023/06/09 05:29:44;;;;;;;8.30;5.40;;;;;;;35.48;32.83;100462.60;102523;278;93722;-59
2023/06/09 05:32:23;;;;;;;8.50;5.50;;;;;;;35.75;32.48;100459.14;102528;278;97083;-57
2023/06/09 05:34:57;;;;;;;6.50;5.40;;;;;;;36.00;32.05;100465.27;102584;279;119335;-59
2023/06/09 05:37:34;;;;;;;9.40;5.20;;;;;;;35.91;31.46;100461.38;102529;279;104734;-59
2023/06/09 05:40:11;;;;;;;7.70;5.30;;;;;;;36.41;31.13;100455.42;102551;279;115341;-59
2023/06/09 05:42:49;;;;;;;8.90;5.00;;;;;;;36.78;30.36;100455.52;102570;278;94780;-59
2023/06/09 05:45:25;;;;;;;9.50;5.30;;;;;;;37.29;29.62;100454.09;102573;278;96757;-59
2023/06/09 05:48:00;;;;;;;8.20;5.60;;;;;;;37.23;29.77;100457.10;102559;278;119387;-59
2023/06/09 05:50:38;;;;;;;9.50;5.10;;;;;;;37.37;29.13;100454.42;102547;278;105337;-60
2023/06/09 05:53:19;;;;;;;9.90;5.20;;;;;;;37.65;28.95;100451.55;102562;278;114312;-60
2023/06/09 05:55:58;;;;;;;10.80;5.10;;;;;;;38.02;28.23;100451.98;102550;278;95580;-57
2023/06/09 05:58:37;;;;;;;10.70;6.50;;;;;;;37.99;28.06;100454.56;102548;278;97602;-57
2023/06/09 06:01:16;;;;;;;8.10;5.30;;;;;;;37.85;27.88;100455.38;102537;279;119981;-57
2023/06/09 06:03:54;;;;;;;9.10;5.00;;;;;;;37.57;27.27;100458.30;102551;279;106334;-59
2023/06/09 06:06:33;;;;;;;8.90;5.00;;;;;;;37.80;27.55;100456.71;102531;279;114555;-60
2023/06/09 06:09:09;;;;;;;6.40;5.00;;;;;;;38.33;27.40;100451.61;102495;279;92637;-56
2023/06/09 06:11:47;;;;;;;7.00;4.70;;;;;;;38.88;26.84;100454.99;102567;279;97332;-57
2023/06/09 06:14:26;;;;;;;11.30;5.30;;;;;;;38.98;26.44;100454.34;102537;278;118921;-59
2023/06/09 06:17:03;;;;;;;6.30;4.60;;;;;;;38.82;26.40;100456.65;102428;279;105813;-59
2023/06/09 06:19:48;;;;;;;8.00;4.60;;;;;;;39.00;26.00;100457.86;102534;279;112479;-55
2023/06/09 06:22:27;;;;;;;7.10;4.90;;;;;;;39.02;25.92;100456.45;102533;278;93987;-56
2023/06/09 06:25:03;;;;;;;7.00;4.40;;;;;;;39.08;25.65;100453.46;102531;279;97773;-59
2023/06/09 06:27:43;;;;;;;11.30;4.50;;;;;;;39.31;25.63;100449.00;102511;278;118002;-58
2023/06/09 06:30:17;;;;;;;6.00;4.00;;;;;;;39.32;25.09;100447.23;102478;278;106509;-57
2023/06/09 06:32:52;;;;;;;8.00;4.40;;;;;;;39.08;25.12;100451.13;102543;279;113325;-56
2023/06/09 06:35:37;;;;;;;6.00;4.50;;;;;;;39.01;24.58;100447.88;102505;279;95225;-56
2023/06/09 06:38:14;;;;;;;5.40;4.10;;;;;;;38.97;24.73;100447.79;102570;279;97544;-55
2023/06/09 06:40:52;;;;;;;4.30;3.80;;;;;;;38.98;24.63;100443.45;102554;279;119605;-59
2023/06/09 06:43:30;;;;;;;7.70;3.80;;;;;;;39.41;24.29;100436.64;102535;278;105367;-60
2023/06/09 06:46:05;;;;;;;7.20;3.90;;;;;;;39.47;24.31;100437.28;102416;275;112960;-60
2023/06/09 06:48:45;;;;;;;8.30;4.50;;;;;;;39.23;24.02;100437.88;102464;278;93933;-59
2023/06/09 06:51:16;;;;;;;6.90;3.90;;;;;;;38.91;24.17;100436.48;102560;278;99118;-59
2023/06/09 06:53:52;;;;;;;6.50;4.30;;;;;;;39.08;24.21;100442.07;102532;278;120417;-56
2023/06/09 06:56:26;;;;;;;5.50;3.80;;;;;;;39.13;24.28;100439.09;102529;278;104680;-57
2023/06/09 06:59:01;;;;;;;4.90;3.50;;;;;;;39.46;23.78;100440.82;102527;278;114516;-57
2023/06/09 07:01:40;;;;;;;4.60;3.40;;;;;;;39.58;23.68;100442.05;102542;278;93677;-59
2023/06/09 07:04:19;;;;;;;6.20;3.60;;;;;;;39.75;23.18;100443.73;102564;279;97927;-60
2023/06/09 07:06:54;;;;;;;5.30;3.40;;;;;;;39.82;23.06;100441.34;102515;278;119768;-59
2023/06/09 07:09:31;;;;;;;6.30;3.60;;;;;;;40.46;22.70;100439.34;102540;278;106049;-59
2023/06/09 07:12:05;;;;;;;5.80;3.80;;;;;;;40.51;22.86;100440.44;102507;278;115111;-59
2023/06/09 07:14:44;;;;;;;7.80;3.90;;;;;;;40.68;22.98;100441.11;102507;278;94655;-56
2023/06/09 07:17:26;;;;;;;6.00;4.00;;;;;;;40.35;22.31;100444.00;102541;278;98266;-57
2023/06/09 07:20:04;;;;;;;4.60;3.60;;;;;;;40.18;22.55;100445.58;102545;279;120638;-55
2023/06/09 07:22:41;;;;;;;6.00;3.90;;;;;;;40.33;22.80;100443.90;102560;278;106020;-56
2023/06/09 07:25:16;;;;;;;5.70;4.20;;;;;;;40.07;22.38;100446.58;102525;278;114293;-56
2023/06/09 07:27:56;;;;;;;6.60;4.30;;;;;;;40.27;22.77;100444.65;102521;278;94893;-56
2023/06/09 07:30:38;;;;;;;3.50;3.20;;;;;;;40.30;22.21;100447.83;102548;278;96864;-58
2023/06/09 07:33:16;;;;;;;5.60;3.20;;;;;;;40.38;22.08;100439.49;102520;278;120624;-59
2023/06/09 07:35:52;;;;;;;4.40;3.00;;;;;;;40.40;22.14;100443.23;102549;279;105340;-59
2023/06/09 07:38:28;;;;;;;4.70;3.00;;;;;;;40.20;21.88;100440.67;102498;279;114316;-59
2023/06/09 07:41:09;;;;;;;3.50;3.10;;;;;;;40.21;22.05;100440.45;102496;278;94864;-56
2023/06/09 07:43:50;;;;;;;4.00;2.80;;;;;;;39.74;22.20;100446.70;102526;278;98871;-58
2023/06/09 07:46:30;;;;;;;2.90;2.70;;;;;;;39.69;22.21;100438.73;102550;278;120878;-59
2023/06/09 07:49:14;;;;;;;3.30;3.00;;;;;;;39.84;22.27;100439.98;102533;279;106195;-55
2023/06/09 07:51:53;;;;;;;5.20;2.80;;;;;;;39.90;21.92;100445.23;102511;278;114335;-56
2023/06/09 07:54:24;;;;;;;4.90;3.00;;;;;;;39.06;22.33;100445.92;102533;278;94432;-59
2023/06/09 07:57:04;;;;;;;4.70;3.40;;;;;;;38.87;22.62;100441.10;102552;271;98033;-59
2023/06/09 07:59:41;;;;;;;3.50;2.90;;;;;;;38.92;22.63;100431.34;102548;279;121592;-59
2023/06/09 08:02:22;;;;;;;5.00;3.30;;;;;;;39.06;22.78;100434.71;102563;278;103650;-59
2023/06/09 08:05:02;;;;;;;4.90;3.40;;;;;;;39.21;22.58;100428.08;102518;279;114332;-57
2023/06/09 08:07:37;;;;;;;3.30;2.90;;;;;;;39.46;22.48;100431.68;102506;279;95195;-56
2023/06/09 08:10:11;;;;;;;4.50;3.20;;;;;;;39.31;22.27;100427.02;102524;278;96663;-59
2023/06/09 08:12:50;;;;;;;4.90;3.30;;;;;;;39.02;22.57;100424.30;102548;278;120992;-56
2023/06/09 08:15:33;;;;;;;3.90;3.10;;;;;;;38.95;22.80;100425.09;102536;278;105349;-56
2023/06/09 08:18:09;;;;;;;7.00;3.50;;;;;;;38.89;22.66;100420.30;102478;278;114479;-57
2023/06/09 08:20:43;;;;;;;4.30;3.30;;;;;;;38.78;22.69;100427.61;102504;279;94479;-56
2023/06/09 08:23:20;;;;;;;5.00;3.20;;;;;;;38.66;22.86;100421.35;102559;278;98472;-56
2023/06/09 08:26:00;;;;;;;5.20;3.00;;;;;;;38.89;22.47;100421.43;102546;278;121525;-60
2023/06/09 08:28:39;;;;;;;5.30;3.30;;;;;;;38.57;22.18;100424.73;102536;267;104300;-59
2023/06/09 08:31:16;;;;;;;4.70;3.50;;;;;;;38.69;22.62;100423.48;102544;278;114099;-58
2023/06/09 08:33:55;;;;;;;4.80;3.60;;;;;;;38.64;22.48;100425.51;102545;278;92972;-56
2023/06/09 08:36:30;;;;;;;4.40;3.40;;;;;;;38.73;22.62;100427.04;102553;278;97171;-57
2023/06/09 08:39:09;;;;;;;5.50;3.20;;;;;;;39.02;22.44;100423.65;102534;278;119065;-60
2023/06/09 08:41:57;;;;;;;3.70;3.40;;;;;;;38.99;22.48;100428.69;102562;278;104861;-59
2023/06/09 08:44:45;;;;;;;3.50;3.20;;;;;;;38.68;22.53;100426.15;102564;279;113626;-55
2023/06/09 08:47:21;;;;;;;5.30;3.80;;;;;;;38.41;22.56;100431.77;102534;278;93423;-55
2023/06/09 08:50:02;;;;;;;3.70;3.40;;;;;;;37.63;22.58;100432.66;102582;278;97274;-54
2023/06/09 08:52:45;;;;;;;4.20;3.20;;;;;;;37.02;23.21;100429.69;102516;278;118645;-55
2023/06/09 08:55:22;;;;;;;3.70;3.20;;;;;;;36.25;23.48;100430.02;102565;279;103810;-59
2023/06/09 08:58:03;;;;;;;3.90;3.50;;;;;;;35.22;24.18;100431.83;102582;278;115060;-60
2023/06/09 09:00:43;;;;;;;4.90;3.40;;;;;;;34.69;24.98;100429.20;102530;278;93481;-59
2023/06/09 09:03:23;;;;;;;4.60;3.20;;;;;;;34.54;25.69;100429.92;102590;271;96692;-58
2023/06/09 09:06:00;;;;;;;6.20;3.20;;;;;;;34.12;25.54;100421.13;102594;278;119908;-59
2023/06/09 09:08:40;;;;;;;6.10;3.30;;;;;;;34.10;25.81;100421.38;102568;278;104243;-58
2023/06/09 09:11:18;;;;;;;3.70;3.10;;;;;;;33.77;26.31;100419.59;102576;279;113684;-59
2023/06/09 09:13:50;;;;;;;4.60;3.00;;;;;;;33.41;26.44;100418.89;102583;279;92946;-55
2023/06/09 09:16:32;;;;;;;4.40;3.40;;;;;;;32.84;26.64;100421.77;102537;279;97972;-56
2023/06/09 09:19:08;;;;;;;5.00;3.10;;;;;;;32.08;27.32;100428.49;102528;279;120411;-59
2023/06/09 09:21:43;;;;;;;4.70;3.20;;;;;;;31.47;27.98;100425.75;102616;279;106637;-59
2023/06/09 09:24:24;;;;;;;3.70;3.30;;;;;;;31.71;28.49;100427.05;102465;280;116861;-55
2023/06/09 09:26:59;;;;;;;5.50;3.10;;;;;;;31.64;28.44;100418.33;102381;279;94239;-56
2023/06/09 09:29:40;;;;;;;6.70;3.60;;;;;;;31.40;28.35;100423.58;102566;278;97793;-57
2023/06/09 09:32:17;;;;;;;4.10;3.20;;;;;;;31.07;28.59;100420.16;102581;279;120716;-58
2023/06/09 09:35:02;;;;;;;4.20;3.10;;;;;;;31.06;28.75;100415.00;102535;279;105870;-56
2023/06/09 09:37:45;;;;;;;6.90;3.70;;;;;;;31.11;28.95;100414.13;102500;279;115671;-57
2023/06/09 09:40:18;;;;;;;4.90;3.00;;;;;;;31.02;28.84;100414.10;102501;279;94119;-55
2023/06/09 09:42:53;;;;;;;5.40;3.30;;;;;;;30.73;28.63;100413.56;102529;279;98534;-56
2023/06/09 09:45:37;;;;;;;4.70;3.20;;;;;;;30.61;28.87;100413.05;102603;279;120565;-56
2023/06/09 09:48:16;;;;;;;3.60;3.30;;;;;;;30.69;29.10;100405.76;102519;279;106777;-54
2023/06/09 09:50:52;;;;;;;4.70;3.20;;;;;;;30.89;29.16;100401.54;102566;279;114537;-56
2023/06/09 09:53:27;;;;;;;6.10;3.60;;;;;;;31.07;29.12;100397.02;102516;279;93652;-56
2023/06/09 09:56:02;;;;;;;6.10;3.50;;;;;;;31.19;29.18;100401.77;102563;278;97620;-56
2023/06/09 09:58:44;;;;;;;3.70;3.00;;;;;;;31.02;29.15;100400.38;102522;279;121384;-55
2023/06/09 10:01:21;;;;;;;5.10;3.40;;;;;;;30.69;29.15;100404.42;102557;278;105570;-55
2023/06/09 10:04:01;;;;;;;6.60;3.20;;;;;;;30.57;29.31;100399.36;102552;278;114916;-57
2023/06/09 10:06:38;;;;;;;4.10;3.70;;;;;;;30.65;29.29;100389.98;102423;279;94982;-58
2023/06/09 10:09:14;;;;;;;3.80;3.20;;;;;;;30.81;29.25;100386.81;102550;279;97927;-56
2023/06/09 10:11:53;;;;;;;5.00;3.50;;;;;;;30.55;29.14;100392.44;102515;278;121498;-55
2023/06/09 10:14:33;;;;;;;4.00;3.40;;;;;;;30.22;29.11;100389.52;102539;279;105517;-56
2023/06/09 10:17:04;;;;;;;4.50;3.80;;;;;;;30.25;29.33;100382.52;102530;279;114912;-56
2023/06/09 10:19:43;;;;;;;3.60;3.20;;;;;;;30.26;29.32;100379.67;102563;279;94959;-56
2023/06/09 10:22:21;;;;;;;3.90;3.30;;;;;;;30.29;29.55;100372.60;102492;279;96851;-56
2023/06/09 10:25:03;;;;;;;4.20;3.80;;;;;;;30.20;29.55;100374.83;102556;279;119514;-56
2023/06/09 10:27:39;;;;;;;5.20;3.20;;;;;;;30.15;29.83;100367.48;102534;279;106087;-56
2023/06/09 10:30:18;;;;;;;4.60;3.40;;;;;;;30.02;29.91;100375.19;102413;278;114409;-56
2023/06/09 10:32:56;;;;;;;4.30;3.40;;;;;;;29.59;30.23;100365.95;102411;279;93745;-55
2023/06/09 10:35:32;;;;;;;5.50;4.20;;;;;;;29.28;30.32;100364.24;102523;279;97235;-55
2023/06/09 10:38:28;;;;;;;7.70;3.70;;;;;;;28.88;30.71;100359.96;102535;278;120546;-56
2023/06/09 10:41:12;;;;;;;7.70;4.00;;;;;;;28.74;30.88;100355.04;102543;279;106915;-56
2023/06/09 10:44:10;;;;;;;5.10;3.30;;;;;;;28.87;31.13;100355.40;102539;279;113855;-57
2023/06/09 10:46:48;;;;;;;4.70;3.40;;;;;;;29.23;31.28;100341.91;102544;278;95081;-56
2023/06/09 10:49:55;;;;;;;3.70;3.30;;;;;;;29.71;30.98;100353.77;102542;278;97870;-55
2023/06/09 10:52:54;;;;;;;4.40;3.10;;;;;;;29.40;29.95;100344.05;102515;278;119919;-54
2023/06/09 10:55:27;;;;;;;4.60;3.70;;;;;;;29.10;30.44;100342.33;102524;278;105218;-56
2023/06/09 10:58:03;;;;;;;5.00;3.10;;;;;;;29.20;30.45;100339.39;102538;279;115053;-55
2023/06/09 11:01:06;;;;;;;6.40;3.60;;;;;;;29.39;30.16;100323.64;102532;279;95067;-55
2023/06/09 11:03:41;;;;;;;6.40;3.20;;;;;;;29.26;29.94;100324.86;102550;278;98381;-56
2023/06/09 11:06:19;;;;;;;6.50;3.50;;;;;;;29.43;30.19;100317.63;102556;278;119515;-57
2023/06/09 11:09:11;;;;;;;6.30;3.40;;;;;;;29.43;30.12;100321.86;102570;278;103673;-54
2023/06/09 11:12:00;;;;;;;5.00;2.90;;;;;;;29.41;30.32;100316.21;102559;279;114336;-54
2023/06/09 11:15:03;;;;;;;5.80;2.90;;;;;;;29.60;29.81;100317.24;102530;279;95066;-58
2023/06/09 11:17:40;;;;;;;5.00;2.60;;;;;;;29.83;29.62;100316.33;101996;278;717783;-58
2023/06/09 11:20:17;;;;;;;3.20;2.50;;;;;;;30.06;29.43;100319.08;102466;278;120792;-55
2023/06/09 11:23:06;;;;;;;5.90;2.70;;;;;;;29.94;28.88;100318.40;102493;267;105465;-55
2023/06/09 11:25:42;;;;;;;4.30;2.70;;;;;;;29.61;28.70;100311.50;102505;279;114842;-55
2023/06/09 11:28:41;;;;;;;3.30;2.40;;;;;;;29.70;28.84;100308.46;102500;278;92153;-53
2023/06/09 11:31:13;;;;;;;4.20;2.40;;;;;;;29.75;28.60;100304.83;102571;278;97728;-59
2023/06/09 11:33:53;;;;;;;4.40;3.10;;;;;;;30.03;28.96;100306.04;102519;278;121042;-56
2023/06/09 11:36:27;;;;;;;4.80;2.60;;;;;;;30.08;28.81;100302.08;102559;279;106149;-57
2023/06/09 11:39:06;;;;;;;8.00;3.30;;;;;;;30.11;28.37;100302.16;102496;278;113144;-55
2023/06/09 11:41:45;;;;;;;6.20;2.60;;;;;;;29.94;28.55;100297.45;102540;278;94513;-55
2023/06/09 11:44:19;;;;;;;7.40;3.00;;;;;;;29.81;28.93;100298.17;102568;278;96283;-56
2023/06/09 11:46:53;;;;;;;5.40;2.60;;;;;;;29.64;29.12;100298.27;102534;278;121051;-56
2023/06/09 11:49:29;;;;;;;5.80;2.50;;;;;;;29.22;29.37;100297.19;102557;278;104786;-56
2023/06/09 11:52:08;;;;;;;4.20;2.90;;;;;;;28.99;29.50;100287.89;102537;278;114705;-56
2023/06/09 11:55:03;;;;;;;5.50;3.00;;;;;;;29.08;29.44;100290.84;102552;279;94746;-58
2023/06/09 11:57:39;;;;;;;19.20;4.20;;;;;;;29.24;29.23;100283.96;102446;279;95518;-58
2023/06/09 12:00:13;;;;;;;4.90;2.90;;;;;;;29.41;29.37;100279.27;102412;279;121425;-55
2023/06/09 12:02:47;;;;;;;5.40;2.70;;;;;;;29.51;29.14;100280.73;102470;279;104655;-55
2023/06/09 12:05:22;;;;;;;5.90;2.60;;;;;;;29.25;28.95;100285.43;102384;279;114487;-59
2023/06/09 12:07:58;;;;;;;4.90;3.30;;;;;;;28.85;28.88;100279.44;102455;275;95088;-59
2023/06/09 12:10:31;;;;;;;5.60;3.40;;;;;;;28.64;28.94;100272.50;102423;279;97685;-56